sensor_id;sensor_type;location;lat;lon;timestamp;temperature;humidity
20091;DHT22;10205;49.678;6.560;2024-03-02T00:01:36;13.00;59.10
20091;DHT22;10205;49.678;6.560;2024-03-02T00:04:04;13.00;59.00
20091;DHT22;10205;49.678;6.560;2024-03-02T00:06:32;12.90;59.20
20091;DHT22;10205;49.678;6.560;2024-03-02T00:08:59;12.90;59.30
20091;DHT22;10205;49.678;6.560;2024-03-02T00:11:27;12.90;59.20
20091;DHT22;10205;49.678;6.560;2024-03-02T00:13:55;12.90;58.90
20091;DHT22;10205;49.678;6.560;2024-03-02T00:16:23;12.90;58.80
20091;DHT22;10205;49.678;6.560;2024-03-02T00:18:50;12.90;59.00
20091;DHT22;10205;49.678;6.560;2024-03-02T00:21:17;12.90;59.00
20091;DHT22;10205;49.678;6.560;2024-03-02T00:23:48;12.90;59.20
20091;DHT22;10205;49.678;6.560;2024-03-02T00:26:17;12.90;59.30
20091;DHT22;10205;49.678;6.560;2024-03-02T00:28:44;12.80;59.20
20091;DHT22;10205;49.678;6.560;2024-03-02T00:31:13;12.80;59.20
20091;DHT22;10205;49.678;6.560;2024-03-02T00:33:42;12.80;59.30
20091;DHT22;10205;49.678;6.560;2024-03-02T00:36:11;12.80;59.30
20091;DHT22;10205;49.678;6.560;2024-03-02T00:38:47;12.80;59.40
20091;DHT22;10205;49.678;6.560;2024-03-02T00:41:17;12.80;59.40
20091;DHT22;10205;49.678;6.560;2024-03-02T00:43:57;12.80;59.30
20091;DHT22;10205;49.678;6.560;2024-03-02T00:46:29;12.80;58.80
20091;DHT22;10205;49.678;6.560;2024-03-02T00:48:58;12.80;59.20
20091;DHT22;10205;49.678;6.560;2024-03-02T00:51:29;12.80;59.30
20091;DHT22;10205;49.678;6.560;2024-03-02T00:54:00;12.80;59.10
20091;DHT22;10205;49.678;6.560;2024-03-02T00:56:29;12.80;59.40
20091;DHT22;10205;49.678;6.560;2024-03-02T00:58:57;12.80;59.60
20091;DHT22;10205;49.678;6.560;2024-03-02T01:01:25;12.80;59.40
20091;DHT22;10205;49.678;6.560;2024-03-02T01:03:53;12.70;59.50
20091;DHT22;10205;49.678;6.560;2024-03-02T01:06:23;12.70;59.40
20091;DHT22;10205;49.678;6.560;2024-03-02T01:08:50;12.70;59.30
20091;DHT22;10205;49.678;6.560;2024-03-02T01:11:18;12.70;59.20
20091;DHT22;10205;49.678;6.560;2024-03-02T01:13:47;12.70;59.10
20091;DHT22;10205;49.678;6.560;2024-03-02T01:16:15;12.70;59.00
20091;DHT22;10205;49.678;6.560;2024-03-02T01:18:43;12.70;59.20
20091;DHT22;10205;49.678;6.560;2024-03-02T01:21:11;12.70;59.10
20091;DHT22;10205;49.678;6.560;2024-03-02T01:23:38;12.70;59.30
20091;DHT22;10205;49.678;6.560;2024-03-02T01:26:05;12.70;59.30
20091;DHT22;10205;49.678;6.560;2024-03-02T01:28:32;12.60;59.20
20091;DHT22;10205;49.678;6.560;2024-03-02T01:30:59;12.60;59.20
20091;DHT22;10205;49.678;6.560;2024-03-02T01:33:27;12.60;59.20
20091;DHT22;10205;49.678;6.560;2024-03-02T01:35:56;12.60;59.20
20091;DHT22;10205;49.678;6.560;2024-03-02T01:38:23;12.70;59.10
20091;DHT22;10205;49.678;6.560;2024-03-02T01:40:50;12.60;59.40
20091;DHT22;10205;49.678;6.560;2024-03-02T01:43:17;12.60;59.30
20091;DHT22;10205;49.678;6.560;2024-03-02T01:45:44;12.60;59.20
20091;DHT22;10205;49.678;6.560;2024-03-02T01:48:11;12.60;59.70
20091;DHT22;10205;49.678;6.560;2024-03-02T01:50:39;12.60;59.10
20091;DHT22;10205;49.678;6.560;2024-03-02T01:53:09;12.60;59.00
20091;DHT22;10205;49.678;6.560;2024-03-02T01:55:36;12.60;59.20
20091;DHT22;10205;49.678;6.560;2024-03-02T01:58:03;12.60;59.30
20091;DHT22;10205;49.678;6.560;2024-03-02T02:00:30;12.60;59.40
20091;DHT22;10205;49.678;6.560;2024-03-02T02:02:58;12.60;59.30
20091;DHT22;10205;49.678;6.560;2024-03-02T02:05:25;12.60;59.30
20091;DHT22;10205;49.678;6.560;2024-03-02T02:07:52;12.60;59.20
20091;DHT22;10205;49.678;6.560;2024-03-02T02:10:20;12.60;59.10
20091;DHT22;10205;49.678;6.560;2024-03-02T02:12:48;12.60;58.90
20091;DHT22;10205;49.678;6.560;2024-03-02T02:15:25;12.60;58.90
20091;DHT22;10205;49.678;6.560;2024-03-02T02:17:52;12.60;58.90
20091;DHT22;10205;49.678;6.560;2024-03-02T02:20:20;12.60;59.10
20091;DHT22;10205;49.678;6.560;2024-03-02T02:22:58;12.60;59.20
20091;DHT22;10205;49.678;6.560;2024-03-02T02:25:26;12.60;59.00
20091;DHT22;10205;49.678;6.560;2024-03-02T02:27:54;12.60;59.10
20091;DHT22;10205;49.678;6.560;2024-03-02T02:30:22;12.60;59.30
20091;DHT22;10205;49.678;6.560;2024-03-02T02:32:51;12.60;59.10
20091;DHT22;10205;49.678;6.560;2024-03-02T02:35:18;12.50;59.20
20091;DHT22;10205;49.678;6.560;2024-03-02T02:37:46;12.60;59.20
20091;DHT22;10205;49.678;6.560;2024-03-02T02:40:17;12.60;59.20
20091;DHT22;10205;49.678;6.560;2024-03-02T02:42:45;12.60;59.00
20091;DHT22;10205;49.678;6.560;2024-03-02T02:45:12;12.60;58.90
20091;DHT22;10205;49.678;6.560;2024-03-02T02:47:40;12.60;59.00
20091;DHT22;10205;49.678;6.560;2024-03-02T02:50:08;12.60;59.10
20091;DHT22;10205;49.678;6.560;2024-03-02T02:52:38;12.60;59.10
20091;DHT22;10205;49.678;6.560;2024-03-02T02:55:08;12.60;59.10
20091;DHT22;10205;49.678;6.560;2024-03-02T02:57:38;12.60;59.10
20091;DHT22;10205;49.678;6.560;2024-03-02T03:00:09;12.60;58.90
20091;DHT22;10205;49.678;6.560;2024-03-02T03:02:39;12.60;58.90
20091;DHT22;10205;49.678;6.560;2024-03-02T03:05:07;12.60;59.00
20091;DHT22;10205;49.678;6.560;2024-03-02T03:07:35;12.60;59.10
20091;DHT22;10205;49.678;6.560;2024-03-02T03:10:04;12.60;59.20
20091;DHT22;10205;49.678;6.560;2024-03-02T03:12:33;12.60;59.10
20091;DHT22;10205;49.678;6.560;2024-03-02T03:15:02;12.60;59.00
20091;DHT22;10205;49.678;6.560;2024-03-02T03:17:32;12.60;59.00
20091;DHT22;10205;49.678;6.560;2024-03-02T03:19:59;12.60;59.10
20091;DHT22;10205;49.678;6.560;2024-03-02T03:22:28;12.60;59.20
20091;DHT22;10205;49.678;6.560;2024-03-02T03:24:55;12.60;59.20
20091;DHT22;10205;49.678;6.560;2024-03-02T03:27:22;12.60;59.20
20091;DHT22;10205;49.678;6.560;2024-03-02T03:29:49;12.60;59.30
20091;DHT22;10205;49.678;6.560;2024-03-02T03:32:17;12.60;59.30
20091;DHT22;10205;49.678;6.560;2024-03-02T03:34:44;12.60;59.20
20091;DHT22;10205;49.678;6.560;2024-03-02T03:37:11;12.60;59.20
20091;DHT22;10205;49.678;6.560;2024-03-02T03:39:38;12.60;59.20
20091;DHT22;10205;49.678;6.560;2024-03-02T03:42:05;12.50;59.20
20091;DHT22;10205;49.678;6.560;2024-03-02T03:44:33;12.50;59.30
20091;DHT22;10205;49.678;6.560;2024-03-02T03:47:00;12.50;59.30
20091;DHT22;10205;49.678;6.560;2024-03-02T03:49:29;12.50;59.30
20091;DHT22;10205;49.678;6.560;2024-03-02T03:51:56;12.50;59.40
20091;DHT22;10205;49.678;6.560;2024-03-02T03:54:23;12.50;59.40
20091;DHT22;10205;49.678;6.560;2024-03-02T03:56:50;12.60;59.60
20091;DHT22;10205;49.678;6.560;2024-03-02T03:59:18;12.50;59.70
20091;DHT22;10205;49.678;6.560;2024-03-02T04:01:45;12.50;59.70
20091;DHT22;10205;49.678;6.560;2024-03-02T04:04:12;12.60;59.80
20091;DHT22;10205;49.678;6.560;2024-03-02T04:06:40;12.50;59.60
20091;DHT22;10205;49.678;6.560;2024-03-02T04:09:07;12.50;59.50
20091;DHT22;10205;49.678;6.560;2024-03-02T04:11:34;12.50;59.50
20091;DHT22;10205;49.678;6.560;2024-03-02T04:14:01;12.50;59.60
20091;DHT22;10205;49.678;6.560;2024-03-02T04:16:29;12.50;59.60
20091;DHT22;10205;49.678;6.560;2024-03-02T04:18:56;12.50;59.70
20091;DHT22;10205;49.678;6.560;2024-03-02T04:21:23;12.40;60.30
20091;DHT22;10205;49.678;6.560;2024-03-02T04:23:51;12.40;59.80
20091;DHT22;10205;49.678;6.560;2024-03-02T04:26:23;12.40;60.00
20091;DHT22;10205;49.678;6.560;2024-03-02T04:28:50;12.40;59.90
20091;DHT22;10205;49.678;6.560;2024-03-02T04:31:17;12.40;59.90
20091;DHT22;10205;49.678;6.560;2024-03-02T04:33:45;12.40;60.70
20091;DHT22;10205;49.678;6.560;2024-03-02T04:36:12;12.40;60.20
20091;DHT22;10205;49.678;6.560;2024-03-02T04:38:39;12.40;60.10
20091;DHT22;10205;49.678;6.560;2024-03-02T04:41:07;12.40;60.10
20091;DHT22;10205;49.678;6.560;2024-03-02T04:43:35;12.40;60.30
20091;DHT22;10205;49.678;6.560;2024-03-02T04:46:02;12.40;60.30
20091;DHT22;10205;49.678;6.560;2024-03-02T04:48:29;12.40;60.60
20091;DHT22;10205;49.678;6.560;2024-03-02T04:50:56;12.40;60.60
20091;DHT22;10205;49.678;6.560;2024-03-02T04:53:23;12.40;60.60
20091;DHT22;10205;49.678;6.560;2024-03-02T04:55:50;12.40;60.70
20091;DHT22;10205;49.678;6.560;2024-03-02T04:58:47;12.40;60.70
20091;DHT22;10205;49.678;6.560;2024-03-02T05:01:14;12.40;60.70
20091;DHT22;10205;49.678;6.560;2024-03-02T05:03:42;12.30;60.80
20091;DHT22;10205;49.678;6.560;2024-03-02T05:06:10;12.30;60.80
20091;DHT22;10205;49.678;6.560;2024-03-02T05:08:37;12.30;60.90
20091;DHT22;10205;49.678;6.560;2024-03-02T05:11:04;12.30;61.00
20091;DHT22;10205;49.678;6.560;2024-03-02T05:13:47;12.30;61.10
20091;DHT22;10205;49.678;6.560;2024-03-02T05:16:14;12.30;61.10
20091;DHT22;10205;49.678;6.560;2024-03-02T05:18:41;12.30;61.20
20091;DHT22;10205;49.678;6.560;2024-03-02T05:21:08;12.30;61.40
20091;DHT22;10205;49.678;6.560;2024-03-02T05:23:35;12.30;61.50
20091;DHT22;10205;49.678;6.560;2024-03-02T05:26:02;12.30;61.60
20091;DHT22;10205;49.678;6.560;2024-03-02T05:28:30;12.30;61.80
20091;DHT22;10205;49.678;6.560;2024-03-02T05:30:58;12.30;61.90
20091;DHT22;10205;49.678;6.560;2024-03-02T05:33:25;12.30;61.80
20091;DHT22;10205;49.678;6.560;2024-03-02T05:35:52;12.30;61.80
20091;DHT22;10205;49.678;6.560;2024-03-02T05:38:19;12.30;61.80
20091;DHT22;10205;49.678;6.560;2024-03-02T05:40:47;12.40;61.90
20091;DHT22;10205;49.678;6.560;2024-03-02T05:43:14;12.30;61.90
20091;DHT22;10205;49.678;6.560;2024-03-02T05:45:41;12.40;61.90
20091;DHT22;10205;49.678;6.560;2024-03-02T05:48:10;12.40;61.90
20091;DHT22;10205;49.678;6.560;2024-03-02T05:50:37;12.40;62.00
20091;DHT22;10205;49.678;6.560;2024-03-02T05:53:04;12.40;62.00
20091;DHT22;10205;49.678;6.560;2024-03-02T05:55:31;12.40;62.00
20091;DHT22;10205;49.678;6.560;2024-03-02T05:57:58;12.40;62.10
20091;DHT22;10205;49.678;6.560;2024-03-02T06:00:41;12.40;62.10
20091;DHT22;10205;49.678;6.560;2024-03-02T06:03:09;12.40;62.20
20091;DHT22;10205;49.678;6.560;2024-03-02T06:05:36;12.40;62.20
20091;DHT22;10205;49.678;6.560;2024-03-02T06:08:03;12.40;62.10
20091;DHT22;10205;49.678;6.560;2024-03-02T06:10:31;12.40;62.30
20091;DHT22;10205;49.678;6.560;2024-03-02T06:12:58;12.40;62.40
20091;DHT22;10205;49.678;6.560;2024-03-02T06:15:25;12.40;62.30
20091;DHT22;10205;49.678;6.560;2024-03-02T06:17:52;12.40;62.40
20091;DHT22;10205;49.678;6.560;2024-03-02T06:20:20;12.40;62.50
20091;DHT22;10205;49.678;6.560;2024-03-02T06:22:47;12.30;62.60
20091;DHT22;10205;49.678;6.560;2024-03-02T06:25:14;12.30;62.60
20091;DHT22;10205;49.678;6.560;2024-03-02T06:27:41;12.30;62.70
20091;DHT22;10205;49.678;6.560;2024-03-02T06:30:10;12.30;62.80
20091;DHT22;10205;49.678;6.560;2024-03-02T06:32:37;12.30;62.90
20091;DHT22;10205;49.678;6.560;2024-03-02T06:35:05;12.30;62.90
20091;DHT22;10205;49.678;6.560;2024-03-02T06:37:38;12.30;63.00
20091;DHT22;10205;49.678;6.560;2024-03-02T06:40:06;12.30;63.10
20091;DHT22;10205;49.678;6.560;2024-03-02T06:42:34;12.30;63.10
20091;DHT22;10205;49.678;6.560;2024-03-02T06:45:01;12.30;63.20
20091;DHT22;10205;49.678;6.560;2024-03-02T06:47:29;12.30;63.20
20091;DHT22;10205;49.678;6.560;2024-03-02T06:49:57;12.30;63.20
20091;DHT22;10205;49.678;6.560;2024-03-02T06:52:24;12.30;63.20
20091;DHT22;10205;49.678;6.560;2024-03-02T06:54:53;12.20;63.30
20091;DHT22;10205;49.678;6.560;2024-03-02T06:57:20;12.20;63.40
20091;DHT22;10205;49.678;6.560;2024-03-02T06:59:50;12.20;63.40
20091;DHT22;10205;49.678;6.560;2024-03-02T07:02:19;12.20;63.50
20091;DHT22;10205;49.678;6.560;2024-03-02T07:04:46;12.20;63.60
20091;DHT22;10205;49.678;6.560;2024-03-02T07:07:14;12.20;63.60
20091;DHT22;10205;49.678;6.560;2024-03-02T07:09:41;12.20;63.60
20091;DHT22;10205;49.678;6.560;2024-03-02T07:12:10;12.20;63.70
20091;DHT22;10205;49.678;6.560;2024-03-02T07:14:37;12.20;63.80
20091;DHT22;10205;49.678;6.560;2024-03-02T07:17:18;12.20;63.80
20091;DHT22;10205;49.678;6.560;2024-03-02T07:19:44;12.20;63.70
20091;DHT22;10205;49.678;6.560;2024-03-02T07:22:12;12.20;63.80
20091;DHT22;10205;49.678;6.560;2024-03-02T07:24:42;12.20;63.90
20091;DHT22;10205;49.678;6.560;2024-03-02T07:27:13;12.20;64.00
20091;DHT22;10205;49.678;6.560;2024-03-02T07:29:40;12.20;64.00
20091;DHT22;10205;49.678;6.560;2024-03-02T07:32:08;12.20;63.80
20091;DHT22;10205;49.678;6.560;2024-03-02T07:34:36;12.20;63.70
20091;DHT22;10205;49.678;6.560;2024-03-02T07:37:04;12.20;63.60
20091;DHT22;10205;49.678;6.560;2024-03-02T07:39:31;12.20;63.70
20091;DHT22;10205;49.678;6.560;2024-03-02T07:41:59;12.20;63.70
20091;DHT22;10205;49.678;6.560;2024-03-02T07:44:28;12.20;63.60
20091;DHT22;10205;49.678;6.560;2024-03-02T07:46:55;12.20;63.60
20091;DHT22;10205;49.678;6.560;2024-03-02T07:49:22;12.20;63.60
20091;DHT22;10205;49.678;6.560;2024-03-02T07:51:49;12.20;63.60
20091;DHT22;10205;49.678;6.560;2024-03-02T07:54:16;12.30;63.50
20091;DHT22;10205;49.678;6.560;2024-03-02T07:56:43;12.30;63.40
20091;DHT22;10205;49.678;6.560;2024-03-02T07:59:12;12.30;63.20
20091;DHT22;10205;49.678;6.560;2024-03-02T08:01:41;12.30;63.30
20091;DHT22;10205;49.678;6.560;2024-03-02T08:04:08;12.30;63.50
20091;DHT22;10205;49.678;6.560;2024-03-02T08:06:35;12.30;63.50
20091;DHT22;10205;49.678;6.560;2024-03-02T08:09:03;12.40;63.40
20091;DHT22;10205;49.678;6.560;2024-03-02T08:11:34;12.40;63.40
20091;DHT22;10205;49.678;6.560;2024-03-02T08:14:02;12.40;63.20
20091;DHT22;10205;49.678;6.560;2024-03-02T08:16:29;12.40;63.10
20091;DHT22;10205;49.678;6.560;2024-03-02T08:18:58;12.40;62.80
20091;DHT22;10205;49.678;6.560;2024-03-02T08:21:26;12.50;63.20
20091;DHT22;10205;49.678;6.560;2024-03-02T08:23:56;12.50;63.30
20091;DHT22;10205;49.678;6.560;2024-03-02T08:26:24;12.50;63.40
20091;DHT22;10205;49.678;6.560;2024-03-02T08:28:51;12.50;63.40
20091;DHT22;10205;49.678;6.560;2024-03-02T08:31:18;12.50;63.50
20091;DHT22;10205;49.678;6.560;2024-03-02T08:33:45;12.50;63.40
20091;DHT22;10205;49.678;6.560;2024-03-02T08:36:13;12.60;63.60
20091;DHT22;10205;49.678;6.560;2024-03-02T08:38:41;12.60;63.70
20091;DHT22;10205;49.678;6.560;2024-03-02T08:41:11;12.60;63.50
20091;DHT22;10205;49.678;6.560;2024-03-02T08:43:41;12.70;63.60
20091;DHT22;10205;49.678;6.560;2024-03-02T08:46:09;12.70;63.60
20091;DHT22;10205;49.678;6.560;2024-03-02T08:48:36;12.70;63.40
20091;DHT22;10205;49.678;6.560;2024-03-02T08:51:03;12.80;63.40
20091;DHT22;10205;49.678;6.560;2024-03-02T08:53:34;12.80;63.30
20091;DHT22;10205;49.678;6.560;2024-03-02T08:56:01;12.90;63.10
20091;DHT22;10205;49.678;6.560;2024-03-02T08:58:31;12.90;63.00
20091;DHT22;10205;49.678;6.560;2024-03-02T09:00:58;12.90;62.90
20091;DHT22;10205;49.678;6.560;2024-03-02T09:03:25;12.90;62.90
20091;DHT22;10205;49.678;6.560;2024-03-02T09:05:52;12.90;63.00
20091;DHT22;10205;49.678;6.560;2024-03-02T09:08:19;13.00;62.90
20091;DHT22;10205;49.678;6.560;2024-03-02T09:10:48;13.00;62.80
20091;DHT22;10205;49.678;6.560;2024-03-02T09:13:15;13.00;62.60
20091;DHT22;10205;49.678;6.560;2024-03-02T09:15:42;13.00;62.60
20091;DHT22;10205;49.678;6.560;2024-03-02T09:18:09;13.00;62.50
20091;DHT22;10205;49.678;6.560;2024-03-02T09:20:37;13.00;62.50
20091;DHT22;10205;49.678;6.560;2024-03-02T09:23:04;13.10;62.60
20091;DHT22;10205;49.678;6.560;2024-03-02T09:25:31;13.10;62.50
20091;DHT22;10205;49.678;6.560;2024-03-02T09:27:59;13.10;63.30
20091;DHT22;10205;49.678;6.560;2024-03-02T09:30:26;13.10;63.20
20091;DHT22;10205;49.678;6.560;2024-03-02T09:32:53;13.10;62.50
20091;DHT22;10205;49.678;6.560;2024-03-02T09:35:20;13.20;62.50
20091;DHT22;10205;49.678;6.560;2024-03-02T09:37:47;13.20;62.50
20091;DHT22;10205;49.678;6.560;2024-03-02T09:40:16;13.20;62.50
20091;DHT22;10205;49.678;6.560;2024-03-02T09:42:45;13.20;62.60
20091;DHT22;10205;49.678;6.560;2024-03-02T09:45:22;13.30;62.60
20091;DHT22;10205;49.678;6.560;2024-03-02T09:47:50;13.30;62.60
20091;DHT22;10205;49.678;6.560;2024-03-02T09:50:18;13.30;63.50
20091;DHT22;10205;49.678;6.560;2024-03-02T09:52:48;13.30;62.70
20091;DHT22;10205;49.678;6.560;2024-03-02T09:55:16;13.30;62.60
20091;DHT22;10205;49.678;6.560;2024-03-02T09:57:45;13.40;62.80
20091;DHT22;10205;49.678;6.560;2024-03-02T10:00:14;13.40;62.80
20091;DHT22;10205;49.678;6.560;2024-03-02T10:02:43;13.40;62.90
20091;DHT22;10205;49.678;6.560;2024-03-02T10:05:23;13.40;63.10
20091;DHT22;10205;49.678;6.560;2024-03-02T10:07:58;13.50;63.10
20091;DHT22;10205;49.678;6.560;2024-03-02T10:10:35;13.50;62.80
20091;DHT22;10205;49.678;6.560;2024-03-02T10:13:06;13.60;62.80
20091;DHT22;10205;49.678;6.560;2024-03-02T10:15:34;13.60;62.80
20091;DHT22;10205;49.678;6.560;2024-03-02T10:18:04;13.60;62.70
20091;DHT22;10205;49.678;6.560;2024-03-02T10:20:31;13.70;62.80
20091;DHT22;10205;49.678;6.560;2024-03-02T10:23:10;13.70;62.70
20091;DHT22;10205;49.678;6.560;2024-03-02T10:25:38;13.80;62.60
20091;DHT22;10205;49.678;6.560;2024-03-02T10:28:05;13.90;62.70
20091;DHT22;10205;49.678;6.560;2024-03-02T10:30:33;13.90;62.60
20091;DHT22;10205;49.678;6.560;2024-03-02T10:33:01;13.90;62.60
20091;DHT22;10205;49.678;6.560;2024-03-02T10:35:29;14.00;62.50
20091;DHT22;10205;49.678;6.560;2024-03-02T10:37:58;14.00;62.60
20091;DHT22;10205;49.678;6.560;2024-03-02T10:40:26;14.10;62.60
20091;DHT22;10205;49.678;6.560;2024-03-02T10:42:54;14.10;62.60
20091;DHT22;10205;49.678;6.560;2024-03-02T10:45:23;14.20;62.50
20091;DHT22;10205;49.678;6.560;2024-03-02T10:47:51;14.30;62.30
20091;DHT22;10205;49.678;6.560;2024-03-02T10:50:19;14.30;62.30
20091;DHT22;10205;49.678;6.560;2024-03-02T10:52:46;14.30;62.20
20091;DHT22;10205;49.678;6.560;2024-03-02T10:55:13;14.40;62.20
20091;DHT22;10205;49.678;6.560;2024-03-02T10:57:50;14.50;62.10
20091;DHT22;10205;49.678;6.560;2024-03-02T11:00:20;14.50;61.70
20091;DHT22;10205;49.678;6.560;2024-03-02T11:02:52;14.50;61.70
20091;DHT22;10205;49.678;6.560;2024-03-02T11:05:28;14.60;61.70
20091;DHT22;10205;49.678;6.560;2024-03-02T11:08:02;14.60;61.50
20091;DHT22;10205;49.678;6.560;2024-03-02T11:10:35;14.70;61.50
20091;DHT22;10205;49.678;6.560;2024-03-02T11:13:09;14.70;61.30
20091;DHT22;10205;49.678;6.560;2024-03-02T11:15:40;14.70;61.20
20091;DHT22;10205;49.678;6.560;2024-03-02T11:18:10;14.80;61.20
20091;DHT22;10205;49.678;6.560;2024-03-02T11:20:40;14.80;61.30
20091;DHT22;10205;49.678;6.560;2024-03-02T11:23:09;14.80;61.00
20091;DHT22;10205;49.678;6.560;2024-03-02T11:25:36;14.90;60.80
20091;DHT22;10205;49.678;6.560;2024-03-02T11:28:05;14.90;60.80
20091;DHT22;10205;49.678;6.560;2024-03-02T11:30:50;15.00;60.70
20091;DHT22;10205;49.678;6.560;2024-03-02T11:33:25;15.00;60.10
20091;DHT22;10205;49.678;6.560;2024-03-02T11:35:56;15.10;60.30
20091;DHT22;10205;49.678;6.560;2024-03-02T11:38:35;15.10;60.40
20091;DHT22;10205;49.678;6.560;2024-03-02T11:41:06;15.20;60.10
20091;DHT22;10205;49.678;6.560;2024-03-02T11:43:37;15.20;60.20
20091;DHT22;10205;49.678;6.560;2024-03-02T11:46:06;15.30;59.90
20091;DHT22;10205;49.678;6.560;2024-03-02T11:48:35;15.30;60.00
20091;DHT22;10205;49.678;6.560;2024-03-02T11:51:05;15.30;59.30
20091;DHT22;10205;49.678;6.560;2024-03-02T11:53:33;15.40;59.60
20091;DHT22;10205;49.678;6.560;2024-03-02T11:56:06;15.40;59.40
20091;DHT22;10205;49.678;6.560;2024-03-02T11:58:36;15.40;59.40
20091;DHT22;10205;49.678;6.560;2024-03-02T12:01:04;15.50;59.50
20091;DHT22;10205;49.678;6.560;2024-03-02T12:03:32;15.60;59.70
20091;DHT22;10205;49.678;6.560;2024-03-02T12:06:01;15.60;59.40
20091;DHT22;10205;49.678;6.560;2024-03-02T12:08:30;15.70;59.60
20091;DHT22;10205;49.678;6.560;2024-03-02T12:10:59;15.80;59.50
20091;DHT22;10205;49.678;6.560;2024-03-02T12:13:28;15.80;59.30
20091;DHT22;10205;49.678;6.560;2024-03-02T12:15:55;15.80;59.20
20091;DHT22;10205;49.678;6.560;2024-03-02T12:18:23;15.90;59.00
20091;DHT22;10205;49.678;6.560;2024-03-02T12:20:50;16.00;58.80
20091;DHT22;10205;49.678;6.560;2024-03-02T12:23:22;16.00;58.70
20091;DHT22;10205;49.678;6.560;2024-03-02T12:25:50;16.10;58.40
20091;DHT22;10205;49.678;6.560;2024-03-02T12:28:17;16.10;58.30
20091;DHT22;10205;49.678;6.560;2024-03-02T12:30:46;16.20;58.40
20091;DHT22;10205;49.678;6.560;2024-03-02T12:33:14;16.20;58.40
20091;DHT22;10205;49.678;6.560;2024-03-02T12:35:41;16.30;58.20
20091;DHT22;10205;49.678;6.560;2024-03-02T12:38:08;16.30;58.10
20091;DHT22;10205;49.678;6.560;2024-03-02T12:40:36;16.30;58.00
20091;DHT22;10205;49.678;6.560;2024-03-02T12:43:05;16.40;57.90
20091;DHT22;10205;49.678;6.560;2024-03-02T12:45:33;16.40;57.70
20091;DHT22;10205;49.678;6.560;2024-03-02T12:48:00;16.40;57.80
20091;DHT22;10205;49.678;6.560;2024-03-02T12:50:28;16.50;57.60
20091;DHT22;10205;49.678;6.560;2024-03-02T12:52:55;16.50;57.50
20091;DHT22;10205;49.678;6.560;2024-03-02T12:55:23;16.60;57.60
20091;DHT22;10205;49.678;6.560;2024-03-02T12:57:51;16.60;57.50
20091;DHT22;10205;49.678;6.560;2024-03-02T13:00:21;16.60;57.30
20091;DHT22;10205;49.678;6.560;2024-03-02T13:02:49;16.60;56.80
20091;DHT22;10205;49.678;6.560;2024-03-02T13:05:17;16.70;57.30
20091;DHT22;10205;49.678;6.560;2024-03-02T13:07:46;16.70;57.20
20091;DHT22;10205;49.678;6.560;2024-03-02T13:10:13;16.80;57.10
20091;DHT22;10205;49.678;6.560;2024-03-02T13:12:40;16.80;57.10
20091;DHT22;10205;49.678;6.560;2024-03-02T13:15:08;16.80;57.10
20091;DHT22;10205;49.678;6.560;2024-03-02T13:17:37;16.80;57.00
20091;DHT22;10205;49.678;6.560;2024-03-02T13:20:06;16.80;56.70
20091;DHT22;10205;49.678;6.560;2024-03-02T13:22:36;16.80;56.90
20091;DHT22;10205;49.678;6.560;2024-03-02T13:25:04;16.90;56.90
20091;DHT22;10205;49.678;6.560;2024-03-02T13:27:31;16.90;56.60
20091;DHT22;10205;49.678;6.560;2024-03-02T13:29:59;16.90;56.50
20091;DHT22;10205;49.678;6.560;2024-03-02T13:32:26;16.90;56.60
20091;DHT22;10205;49.678;6.560;2024-03-02T13:34:54;17.00;56.90
20091;DHT22;10205;49.678;6.560;2024-03-02T13:37:21;17.00;56.80
20091;DHT22;10205;49.678;6.560;2024-03-02T13:39:49;17.10;56.60
20091;DHT22;10205;49.678;6.560;2024-03-02T13:42:16;17.10;56.60
20091;DHT22;10205;49.678;6.560;2024-03-02T13:44:43;17.10;56.60
20091;DHT22;10205;49.678;6.560;2024-03-02T13:47:13;17.10;56.40
20091;DHT22;10205;49.678;6.560;2024-03-02T13:49:40;17.10;56.50
20091;DHT22;10205;49.678;6.560;2024-03-02T13:52:11;17.10;56.30
20091;DHT22;10205;49.678;6.560;2024-03-02T13:54:39;17.20;56.30
20091;DHT22;10205;49.678;6.560;2024-03-02T13:57:08;17.20;56.40
20091;DHT22;10205;49.678;6.560;2024-03-02T13:59:36;17.20;56.30
20091;DHT22;10205;49.678;6.560;2024-03-02T14:02:04;17.20;56.30
20091;DHT22;10205;49.678;6.560;2024-03-02T14:04:32;17.20;56.30
20091;DHT22;10205;49.678;6.560;2024-03-02T14:07:00;17.20;56.40
20091;DHT22;10205;49.678;6.560;2024-03-02T14:09:29;17.20;56.30
20091;DHT22;10205;49.678;6.560;2024-03-02T14:11:57;17.20;56.00
20091;DHT22;10205;49.678;6.560;2024-03-02T14:14:26;17.20;56.30
20091;DHT22;10205;49.678;6.560;2024-03-02T14:16:53;17.30;56.40
20091;DHT22;10205;49.678;6.560;2024-03-02T14:19:21;17.30;56.20
20091;DHT22;10205;49.678;6.560;2024-03-02T14:21:48;17.30;56.20
20091;DHT22;10205;49.678;6.560;2024-03-02T14:24:15;17.30;56.20
20091;DHT22;10205;49.678;6.560;2024-03-02T14:26:45;17.30;56.40
20091;DHT22;10205;49.678;6.560;2024-03-02T14:29:12;17.30;56.40
20091;DHT22;10205;49.678;6.560;2024-03-02T14:31:39;17.30;56.30
20091;DHT22;10205;49.678;6.560;2024-03-02T14:34:06;17.40;56.40
20091;DHT22;10205;49.678;6.560;2024-03-02T14:36:33;17.40;56.20
20091;DHT22;10205;49.678;6.560;2024-03-02T14:39:00;17.40;56.10
20091;DHT22;10205;49.678;6.560;2024-03-02T14:41:29;17.40;55.90
20091;DHT22;10205;49.678;6.560;2024-03-02T14:43:58;17.50;56.10
20091;DHT22;10205;49.678;6.560;2024-03-02T14:46:25;17.40;56.00
20091;DHT22;10205;49.678;6.560;2024-03-02T14:48:52;17.50;56.20
20091;DHT22;10205;49.678;6.560;2024-03-02T14:51:19;17.40;56.10
20091;DHT22;10205;49.678;6.560;2024-03-02T14:53:46;17.50;56.10
20091;DHT22;10205;49.678;6.560;2024-03-02T14:56:13;17.50;56.10
20091;DHT22;10205;49.678;6.560;2024-03-02T14:58:40;17.50;56.30
20091;DHT22;10205;49.678;6.560;2024-03-02T15:01:09;17.50;56.00
20091;DHT22;10205;49.678;6.560;2024-03-02T15:03:36;17.50;56.10
20091;DHT22;10205;49.678;6.560;2024-03-02T15:06:03;17.50;56.00
20091;DHT22;10205;49.678;6.560;2024-03-02T15:08:33;17.50;56.00
20091;DHT22;10205;49.678;6.560;2024-03-02T15:11:00;17.50;55.70
20091;DHT22;10205;49.678;6.560;2024-03-02T15:13:29;17.50;55.90
20091;DHT22;10205;49.678;6.560;2024-03-02T15:15:56;17.50;55.70
20091;DHT22;10205;49.678;6.560;2024-03-02T15:18:25;17.60;55.60
20091;DHT22;10205;49.678;6.560;2024-03-02T15:20:53;17.50;55.40
20091;DHT22;10205;49.678;6.560;2024-03-02T15:23:20;17.60;55.40
20091;DHT22;10205;49.678;6.560;2024-03-02T15:25:47;17.60;55.50
20091;DHT22;10205;49.678;6.560;2024-03-02T15:28:14;17.50;55.40
20091;DHT22;10205;49.678;6.560;2024-03-02T15:30:41;17.50;55.50
20091;DHT22;10205;49.678;6.560;2024-03-02T15:33:08;17.50;55.50
20091;DHT22;10205;49.678;6.560;2024-03-02T15:35:36;17.50;55.50
20091;DHT22;10205;49.678;6.560;2024-03-02T15:38:03;17.50;56.20